Time;durP1;ratioP1;P1;durP2;ratioP2;P2;SDS_P1;SDS_P2;PMS_P1;PMS_P2;Temp;Humidity;BMP_temperature;BMP_pressure;BME280_temperature;BME280_humidity;BME280_pressure;Samples;Min_cycle;Max_cycle;Signal;HPM_P1;HPM_P2
2023/12/15 00:00:21;;;;;;;20.20;11.45;;;;;;;;;;6177943;23;20009;-90
2023/12/15 00:02:59;;;;;;;21.67;11.60;;;;;;;;;;6180276;23;20031;-89
2023/12/15 00:05:39;;;;;;;20.90;11.73;;;;;;;;;;6178030;23;20071;-91
2023/12/15 00:08:20;;;;;;;16.50;10.90;;;;;;;;;;6177957;23;20079;-89
2023/12/15 00:10:59;;;;;;;21.15;13.05;;;;;;;;;;6178537;23;20017;-87
2023/12/15 00:13:27;;;;;;;21.45;11.38;;;;;;;;;;6179135;23;20008;-87
2023/12/15 00:15:56;;;;;;;17.92;11.57;;;;;;;;;;6173892;23;20020;-88
2023/12/15 00:18:24;;;;;;;19.52;11.18;;;;;;;;;;6177444;23;20431;-88
2023/12/15 00:20:55;;;;;;;18.40;11.38;;;;;;;;;;6179406;23;20086;-88
2023/12/15 00:23:25;;;;;;;25.08;12.85;;;;;;;;;;6174314;23;20015;-88
2023/12/15 00:26:00;;;;;;;18.88;11.25;;;;;;;;;;6177153;23;20079;-87
2023/12/15 00:28:25;;;;;;;18.98;11.35;;;;;;;;;;6179502;23;20431;-88
2023/12/15 00:30:51;;;;;;;19.73;12.48;;;;;;;;;;6178707;23;20070;-88
2023/12/15 00:33:17;;;;;;;20.23;12.63;;;;;;;;;;6175680;23;20048;-88
2023/12/15 00:35:46;;;;;;;20.55;12.38;;;;;;;;;;6178122;23;20005;-88
2023/12/15 00:38:12;;;;;;;22.08;14.02;;;;;;;;;;6178717;23;20428;-88
2023/12/15 00:40:37;;;;;;;21.95;13.10;;;;;;;;;;6175891;23;20009;-90
2023/12/15 00:43:03;;;;;;;20.70;12.90;;;;;;;;;;6175727;23;20005;-91
2023/12/15 00:45:46;;;;;;;24.98;14.43;;;;;;;;;;6185404;23;20096;-90
2023/12/15 00:48:18;;;;;;;23.40;14.30;;;;;;;;;;6185213;23;20100;-90
2023/12/15 00:50:43;;;;;;;23.45;14.00;;;;;;;;;;6160218;23;20001;-90
2023/12/15 00:53:09;;;;;;;23.10;14.32;;;;;;;;;;6185651;23;20004;-90
2023/12/15 00:55:34;;;;;;;22.60;14.35;;;;;;;;;;6184897;23;20452;-91
2023/12/15 00:58:00;;;;;;;26.33;14.35;;;;;;;;;;6184714;23;20009;-91
2023/12/15 01:00:25;;;;;;;24.83;14.40;;;;;;;;;;6184554;23;20132;-91
2023/12/15 01:02:51;;;;;;;24.13;14.95;;;;;;;;;;6185447;23;20028;-90
2023/12/15 01:05:16;;;;;;;25.83;14.98;;;;;;;;;;6185560;23;20008;-90
2023/12/15 01:07:42;;;;;;;26.88;14.77;;;;;;;;;;6185501;23;20009;-91
2023/12/15 01:10:07;;;;;;;26.77;14.65;;;;;;;;;;6185459;23;20059;-90
2023/12/15 01:12:33;;;;;;;25.63;15.70;;;;;;;;;;6184558;23;19997;-90
2023/12/15 01:14:58;;;;;;;26.38;15.40;;;;;;;;;;6185049;23;20056;-90
2023/12/15 01:17:24;;;;;;;27.77;15.70;;;;;;;;;;6184811;23;20005;-89
2023/12/15 01:19:49;;;;;;;24.35;15.13;;;;;;;;;;6185374;23;20005;-91
2023/12/15 01:22:15;;;;;;;25.08;15.23;;;;;;;;;;6184405;23;20374;-92
2023/12/15 01:24:40;;;;;;;29.80;16.25;;;;;;;;;;6159652;23;20045;-91
2023/12/15 01:27:06;;;;;;;26.00;16.45;;;;;;;;;;6184724;23;20008;-92
2023/12/15 01:29:31;;;;;;;26.42;15.93;;;;;;;;;;6185241;23;20027;-87
2023/12/15 01:31:57;;;;;;;31.90;16.80;;;;;;;;;;6184034;23;20088;-88
2023/12/15 01:34:22;;;;;;;31.60;17.02;;;;;;;;;;6183705;23;20005;-87
2023/12/15 01:36:48;;;;;;;26.77;15.32;;;;;;;;;;6184294;23;20012;-87
2023/12/15 01:39:13;;;;;;;27.52;16.45;;;;;;;;;;6183706;23;20013;-87
2023/12/15 01:41:39;;;;;;;30.05;17.02;;;;;;;;;;6183833;23;20001;-87
2023/12/15 01:44:04;;;;;;;25.83;15.55;;;;;;;;;;6183643;23;20004;-88
2023/12/15 01:46:29;;;;;;;26.67;15.73;;;;;;;;;;6184319;23;20009;-87
2023/12/15 01:49:13;;;;;;;26.70;15.73;;;;;;;;;;6183796;23;20339;-88
2023/12/15 01:51:39;;;;;;;26.52;14.25;;;;;;;;;;6183356;23;19997;-88
2023/12/15 01:54:04;;;;;;;27.20;15.68;;;;;;;;;;6183519;23;20016;-88
2023/12/15 01:56:30;;;;;;;27.05;15.93;;;;;;;;;;6183400;23;20016;-88
2023/12/15 01:58:55;;;;;;;25.85;15.52;;;;;;;;;;6183008;23;20415;-89
2023/12/15 02:01:21;;;;;;;28.20;15.13;;;;;;;;;;6183813;23;20008;-88
2023/12/15 02:03:46;;;;;;;27.73;15.45;;;;;;;;;;6183364;23;20075;-88
2023/12/15 02:06:12;;;;;;;28.38;15.38;;;;;;;;;;6183014;23;20009;-88
2023/12/15 02:08:37;;;;;;;31.23;16.15;;;;;;;;;;6183511;23;20008;-88
2023/12/15 02:11:03;;;;;;;26.33;15.32;;;;;;;;;;6183938;23;20005;-88
2023/12/15 02:13:28;;;;;;;32.15;15.57;;;;;;;;;;6183004;23;20016;-88
2023/12/15 02:15:54;;;;;;;27.73;15.80;;;;;;;;;;6184927;23;20040;-87
2023/12/15 02:18:19;;;;;;;27.38;14.55;;;;;;;;;;6183596;23;20013;-88
2023/12/15 02:20:45;;;;;;;28.58;15.38;;;;;;;;;;6183898;23;20084;-88
2023/12/15 02:23:10;;;;;;;26.05;14.65;;;;;;;;;;6183273;23;20032;-88
2023/12/15 02:25:36;;;;;;;31.17;16.65;;;;;;;;;;6183746;23;20008;-89
2023/12/15 02:28:01;;;;;;;28.90;15.40;;;;;;;;;;6185315;23;20064;-88
2023/12/15 02:30:26;;;;;;;28.10;16.13;;;;;;;;;;6183427;23;20016;-89
2023/12/15 02:32:52;;;;;;;29.38;15.68;;;;;;;;;;6183630;23;20005;-88
2023/12/15 02:35:18;;;;;;;30.95;16.30;;;;;;;;;;6183234;23;20001;-88
2023/12/15 02:37:43;;;;;;;30.42;15.95;;;;;;;;;;6183697;23;20457;-89
2023/12/15 02:40:09;;;;;;;29.73;16.50;;;;;;;;;;6183904;23;20009;-92
2023/12/15 02:42:34;;;;;;;30.13;15.90;;;;;;;;;;6184366;23;20001;-92
2023/12/15 02:45:01;;;;;;;30.48;16.25;;;;;;;;;;6181801;23;20005;-91
2023/12/15 02:47:35;;;;;;;30.92;16.08;;;;;;;;;;6181807;23;20760;-92
2023/12/15 02:50:01;;;;;;;30.80;16.73;;;;;;;;;;6181115;23;19993;-88
2023/12/15 02:52:40;;;;;;;29.35;15.73;;;;;;;;;;6181191;23;20009;-88
2023/12/15 02:55:06;;;;;;;32.72;15.05;;;;;;;;;;6179443;23;20012;-88
2023/12/15 02:57:33;;;;;;;32.05;16.33;;;;;;;;;;6181175;23;20005;-89
2023/12/15 02:59:59;;;;;;;32.40;16.77;;;;;;;;;;6181546;23;20008;-87
2023/12/15 03:02:24;;;;;;;31.08;16.33;;;;;;;;;;6183340;23;20093;-88
2023/12/15 03:04:50;;;;;;;35.40;16.73;;;;;;;;;;6182420;23;20084;-88
2023/12/15 03:07:15;;;;;;;34.15;16.48;;;;;;;;;;6181984;23;20009;-87
2023/12/15 03:09:40;;;;;;;31.55;16.15;;;;;;;;;;6182617;23;20008;-88
2023/12/15 03:12:06;;;;;;;28.73;15.43;;;;;;;;;;6183585;23;20020;-89
2023/12/15 03:14:31;;;;;;;30.52;16.65;;;;;;;;;;6182568;23;20004;-88
2023/12/15 03:16:57;;;;;;;32.72;17.08;;;;;;;;;;6182094;23;20059;-88
2023/12/15 03:19:22;;;;;;;31.63;16.63;;;;;;;;;;6182851;23;20012;-88
2023/12/15 03:21:47;;;;;;;32.53;16.63;;;;;;;;;;6183156;23;20343;-88
2023/12/15 03:24:13;;;;;;;29.77;16.00;;;;;;;;;;6182391;23;20320;-88
2023/12/15 03:26:38;;;;;;;31.90;15.95;;;;;;;;;;6182867;23;20005;-87
2023/12/15 03:29:04;;;;;;;35.15;16.40;;;;;;;;;;6182435;23;20005;-88
2023/12/15 03:31:29;;;;;;;30.63;16.38;;;;;;;;;;6182158;23;20072;-88
2023/12/15 03:34:08;;;;;;;36.25;17.17;;;;;;;;;;6182362;23;20009;-88
2023/12/15 03:36:38;;;;;;;30.98;16.70;;;;;;;;;;6183368;23;20083;-88
2023/12/15 03:39:07;;;;;;;29.95;15.68;;;;;;;;;;6184696;23;20009;-89
2023/12/15 03:41:33;;;;;;;31.20;17.05;;;;;;;;;;6184743;23;20096;-88
2023/12/15 03:43:59;;;;;;;36.55;17.20;;;;;;;;;;6186194;23;20047;-88
2023/12/15 03:46:24;;;;;;;37.35;16.77;;;;;;;;;;6183937;23;20005;-88
2023/12/15 03:48:50;;;;;;;37.35;17.13;;;;;;;;;;6185043;23;20005;-88
2023/12/15 03:51:15;;;;;;;34.60;17.52;;;;;;;;;;6185256;23;20008;-91
2023/12/15 03:53:41;;;;;;;37.55;17.27;;;;;;;;;;6186076;23;20008;-90
2023/12/15 03:56:07;;;;;;;33.53;17.42;;;;;;;;;;6185642;23;20004;-92
2023/12/15 03:58:33;;;;;;;34.28;17.23;;;;;;;;;;6185426;23;20009;-91
2023/12/15 04:00:58;;;;;;;37.72;19.05;;;;;;;;;;6185089;23;20055;-92
2023/12/15 04:03:24;;;;;;;38.80;17.95;;;;;;;;;;6185948;23;20009;-92
2023/12/15 04:05:49;;;;;;;35.60;17.65;;;;;;;;;;6185029;23;20431;-91
2023/12/15 04:08:15;;;;;;;37.42;16.77;;;;;;;;;;6185572;23;20308;-92
2023/12/15 04:10:40;;;;;;;32.80;16.90;;;;;;;;;;6184351;23;20013;-87
2023/12/15 04:13:06;;;;;;;32.25;17.45;;;;;;;;;;6184312;23;20036;-87
2023/12/15 04:15:31;;;;;;;34.78;16.70;;;;;;;;;;6183339;23;20004;-88
2023/12/15 04:17:57;;;;;;;37.95;17.95;;;;;;;;;;6184675;23;20063;-88
2023/12/15 04:20:22;;;;;;;34.10;17.10;;;;;;;;;;6184973;23;20439;-88
2023/12/15 04:22:48;;;;;;;34.85;16.80;;;;;;;;;;6184394;23;20084;-88
2023/12/15 04:25:14;;;;;;;36.38;17.55;;;;;;;;;;6183724;23;20423;-88
2023/12/15 04:27:39;;;;;;;36.67;16.67;;;;;;;;;;6183612;23;20012;-87
2023/12/15 04:30:06;;;;;;;36.25;16.77;;;;;;;;;;6184860;23;20364;-88
2023/12/15 04:32:31;;;;;;;37.55;17.30;;;;;;;;;;6186132;23;20519;-88
2023/12/15 04:34:57;;;;;;;41.45;19.42;;;;;;;;;;6184180;23;20001;-88
2023/12/15 04:37:22;;;;;;;36.17;16.85;;;;;;;;;;6184396;23;20426;-88
2023/12/15 04:39:47;;;;;;;34.97;16.80;;;;;;;;;;6185762;23;20039;-88
2023/12/15 04:42:13;;;;;;;31.38;16.45;;;;;;;;;;6184506;23;20051;-88
2023/12/15 04:44:39;;;;;;;36.40;17.30;;;;;;;;;;6183894;23;20008;-88
2023/12/15 04:47:05;;;;;;;36.33;18.05;;;;;;;;;;6183811;23;20009;-88
2023/12/15 04:49:30;;;;;;;39.40;18.17;;;;;;;;;;6184543;23;20008;-88
2023/12/15 04:51:56;;;;;;;36.58;16.73;;;;;;;;;;6158874;23;20013;-87
2023/12/15 04:54:21;;;;;;;37.03;17.92;;;;;;;;;;6184352;23;20033;-87
2023/12/15 04:56:47;;;;;;;36.38;18.05;;;;;;;;;;6185673;23;20015;-87
2023/12/15 04:59:12;;;;;;;37.53;17.85;;;;;;;;;;6183373;23;20012;-88
2023/12/15 05:01:38;;;;;;;37.45;16.15;;;;;;;;;;6183151;23;20454;-88
2023/12/15 05:04:03;;;;;;;42.35;18.33;;;;;;;;;;6183614;23;20009;-89
2023/12/15 05:06:29;;;;;;;37.10;17.73;;;;;;;;;;6184369;23;20084;-89
2023/12/15 05:08:55;;;;;;;38.53;17.17;;;;;;;;;;6184390;23;20415;-88
2023/12/15 05:11:21;;;;;;;36.97;16.08;;;;;;;;;;6185099;23;20011;-92
2023/12/15 05:13:47;;;;;;;41.38;17.92;;;;;;;;;;6184064;23;20376;-90
2023/12/15 05:16:12;;;;;;;38.78;16.80;;;;;;;;;;6184911;23;20017;-91
2023/12/15 05:18:38;;;;;;;36.13;17.08;;;;;;;;;;6184783;23;20076;-91
2023/12/15 05:21:04;;;;;;;33.85;15.30;;;;;;;;;;6184761;23;20070;-91
2023/12/15 05:23:30;;;;;;;37.70;16.63;;;;;;;;;;6184824;23;20008;-90
2023/12/15 05:25:55;;;;;;;36.63;16.45;;;;;;;;;;6183711;23;20013;-91
2023/12/15 05:28:21;;;;;;;37.35;16.95;;;;;;;;;;6184834;23;20012;-90
2023/12/15 05:30:47;;;;;;;38.08;16.42;;;;;;;;;;6184132;23;20009;-90
2023/12/15 05:33:13;;;;;;;35.00;16.48;;;;;;;;;;6185558;23;20040;-91
2023/12/15 05:35:39;;;;;;;36.13;17.50;;;;;;;;;;6183975;23;20013;-91
2023/12/15 05:38:05;;;;;;;37.60;16.60;;;;;;;;;;6184623;23;20005;-90
2023/12/15 05:40:30;;;;;;;34.95;16.40;;;;;;;;;;6184120;23;20012;-90
2023/12/15 05:42:56;;;;;;;35.50;16.17;;;;;;;;;;6185110;23;20016;-90
2023/12/15 05:45:21;;;;;;;34.53;16.08;;;;;;;;;;6183890;23;20059;-91
2023/12/15 05:47:48;;;;;;;34.00;16.38;;;;;;;;;;6184295;23;20009;-91
2023/12/15 05:50:14;;;;;;;35.67;16.77;;;;;;;;;;6183800;23;20497;-90
2023/12/15 05:52:40;;;;;;;38.03;15.25;;;;;;;;;;6183237;23;20012;-91
2023/12/15 05:55:08;;;;;;;33.20;16.63;;;;;;;;;;6183154;23;20009;-91
2023/12/15 05:57:33;;;;;;;33.55;17.27;;;;;;;;;;6183227;23;20009;-91
2023/12/15 05:59:59;;;;;;;34.40;16.98;;;;;;;;;;6183176;23;20036;-91
2023/12/15 06:02:25;;;;;;;34.72;16.65;;;;;;;;;;6184289;23;20004;-91
2023/12/15 06:04:51;;;;;;;34.85;17.15;;;;;;;;;;6184215;23;20351;-91
2023/12/15 06:07:17;;;;;;;33.05;17.58;;;;;;;;;;6184394;23;20386;-91
2023/12/15 06:09:42;;;;;;;36.63;17.10;;;;;;;;;;6183588;23;20080;-91
2023/12/15 06:12:09;;;;;;;36.60;17.63;;;;;;;;;;6181269;23;20008;-91
2023/12/15 06:14:39;;;;;;;37.05;16.98;;;;;;;;;;6182450;23;20449;-92
2023/12/15 06:17:08;;;;;;;34.42;16.85;;;;;;;;;;6180163;23;20003;-92
2023/12/15 06:19:37;;;;;;;32.45;16.05;;;;;;;;;;6182998;23;20427;-90
2023/12/15 06:22:03;;;;;;;35.80;17.17;;;;;;;;;;6182340;23;20009;-91
2023/12/15 06:24:28;;;;;;;37.40;17.13;;;;;;;;;;6182897;23;20001;-92
2023/12/15 06:26:54;;;;;;;38.15;16.88;;;;;;;;;;6181537;23;20000;-91
2023/12/15 06:29:19;;;;;;;36.10;16.42;;;;;;;;;;6181516;23;20087;-89
2023/12/15 06:31:46;;;;;;;32.05;15.75;;;;;;;;;;6182095;23;20427;-89
2023/12/15 06:34:11;;;;;;;34.28;16.65;;;;;;;;;;6181999;23;20509;-87
2023/12/15 06:36:37;;;;;;;37.10;16.02;;;;;;;;;;6183980;23;20005;-88
2023/12/15 06:39:02;;;;;;;37.90;16.77;;;;;;;;;;6179403;23;20107;-88
2023/12/15 06:41:28;;;;;;;36.70;17.27;;;;;;;;;;6180971;23;20088;-88
2023/12/15 06:43:54;;;;;;;35.15;16.88;;;;;;;;;;6181508;23;20645;-88
2023/12/15 06:46:19;;;;;;;35.28;17.17;;;;;;;;;;6181084;23;20005;-88
2023/12/15 06:48:44;;;;;;;38.25;17.33;;;;;;;;;;6180325;23;20001;-88
2023/12/15 06:51:10;;;;;;;38.20;16.88;;;;;;;;;;6179842;23;20013;-90
2023/12/15 06:53:35;;;;;;;38.25;17.52;;;;;;;;;;6181427;23;20011;-88
2023/12/15 06:56:04;;;;;;;35.75;16.92;;;;;;;;;;6181735;23;20052;-88
2023/12/15 06:58:32;;;;;;;38.50;17.92;;;;;;;;;;6181312;23;20004;-88
2023/12/15 07:01:00;;;;;;;33.28;16.95;;;;;;;;;;6178336;23;20009;-88
2023/12/15 07:03:48;;;;;;;32.15;16.08;;;;;;;;;;6179449;23;20095;-88
2023/12/15 07:06:38;;;;;;;;;;;;;;;;;;;;;
2023/12/15 07:09:11;;;;;;;36.22;16.25;;;;;;;;;;6182145;23;20080;-88
2023/12/15 07:11:50;;;;;;;29.27;15.48;;;;;;;;;;6180138;23;20005;-88
2023/12/15 07:14:19;;;;;;;35.03;17.10;;;;;;;;;;6157335;23;20035;-87
2023/12/15 07:16:44;;;;;;;32.67;16.38;;;;;;;;;;6180913;23;20391;-88
2023/12/15 07:19:15;;;;;;;35.33;16.83;;;;;;;;;;6181300;23;20004;-87
2023/12/15 07:21:41;;;;;;;33.85;17.08;;;;;;;;;;6156725;23;20008;-88
2023/12/15 07:24:06;;;;;;;32.20;15.68;;;;;;;;;;6181021;23;20016;-88
2023/12/15 07:26:32;;;;;;;31.95;16.38;;;;;;;;;;6181635;23;20001;-88
2023/12/15 07:28:57;;;;;;;31.83;16.30;;;;;;;;;;6182127;23;20008;-88
2023/12/15 07:31:23;;;;;;;28.88;16.10;;;;;;;;;;6181945;23;20087;-88
2023/12/15 07:33:48;;;;;;;28.88;15.48;;;;;;;;;;6181521;23;20051;-89
2023/12/15 07:36:14;;;;;;;29.35;15.57;;;;;;;;;;6182527;23;20001;-88
2023/12/15 07:38:39;;;;;;;33.38;16.27;;;;;;;;;;6180623;23;20378;-88
2023/12/15 07:41:08;;;;;;;32.42;15.85;;;;;;;;;;6183679;23;20354;-91
2023/12/15 07:43:34;;;;;;;33.78;15.80;;;;;;;;;;6183897;23;20087;-90
2023/12/15 07:45:59;;;;;;;31.90;16.55;;;;;;;;;;6183387;23;20009;-92
2023/12/15 07:48:25;;;;;;;29.25;14.88;;;;;;;;;;6183230;23;20005;-91
2023/12/15 07:50:50;;;;;;;29.35;16.70;;;;;;;;;;6182930;23;20012;-91
2023/12/15 07:53:16;;;;;;;29.25;15.75;;;;;;;;;;6184129;23;20016;-92
2023/12/15 07:55:41;;;;;;;29.90;15.60;;;;;;;;;;6183109;23;20016;-92
2023/12/15 07:58:10;;;;;;;31.52;15.18;;;;;;;;;;6183172;23;20522;-91
2023/12/15 08:00:35;;;;;;;33.10;15.32;;;;;;;;;;6181562;23;20005;-90
2023/12/15 08:03:01;;;;;;;29.75;15.32;;;;;;;;;;6182111;23;20013;-92
2023/12/15 08:05:26;;;;;;;32.67;15.65;;;;;;;;;;6183389;23;20075;-92
2023/12/15 08:07:52;;;;;;;31.23;15.15;;;;;;;;;;6183385;23;20016;-91
2023/12/15 08:10:17;;;;;;;29.92;15.00;;;;;;;;;;6182114;23;20040;-92
2023/12/15 08:12:43;;;;;;;33.28;15.32;;;;;;;;;;6183180;23;20088;-91
2023/12/15 08:15:08;;;;;;;32.85;16.05;;;;;;;;;;6182713;23;20020;-91
2023/12/15 08:17:34;;;;;;;30.83;15.38;;;;;;;;;;6183743;23;20001;-91
2023/12/15 08:20:07;;;;;;;34.03;15.88;;;;;;;;;;6183062;23;20343;-91
2023/12/15 08:22:48;;;;;;;35.22;16.65;;;;;;;;;;6183588;23;20012;-91
2023/12/15 08:25:53;;;;;;;27.40;14.88;;;;;;;;;;6183260;23;20012;-91
2023/12/15 08:28:20;;;;;;;32.05;14.68;;;;;;;;;;6185003;23;20001;-92
2023/12/15 08:30:47;;;;;;;30.48;15.30;;;;;;;;;;6184614;23;20746;-91
2023/12/15 08:33:13;;;;;;;32.35;15.15;;;;;;;;;;6185029;23;20004;-91
2023/12/15 08:35:38;;;;;;;37.13;15.50;;;;;;;;;;6184747;23;20059;-90
2023/12/15 08:38:04;;;;;;;30.95;15.18;;;;;;;;;;6185535;23;20083;-91
2023/12/15 08:40:29;;;;;;;31.83;15.60;;;;;;;;;;6184265;23;20016;-91
2023/12/15 08:42:55;;;;;;;31.42;15.85;;;;;;;;;;6185290;23;20009;-91
2023/12/15 08:45:36;;;;;;;34.53;15.20;;;;;;;;;;6184758;23;20005;-91
2023/12/15 08:48:02;;;;;;;33.50;15.20;;;;;;;;;;6159420;23;20502;-91
2023/12/15 08:50:27;;;;;;;30.35;16.17;;;;;;;;;;6184547;23;20001;-90
2023/12/15 08:52:53;;;;;;;31.33;15.75;;;;;;;;;;6184246;23;20009;-90
2023/12/15 08:55:19;;;;;;;30.33;16.23;;;;;;;;;;6184510;23;20011;-91
2023/12/15 08:57:44;;;;;;;38.17;17.02;;;;;;;;;;6184645;23;20005;-91
2023/12/15 09:00:10;;;;;;;30.73;16.15;;;;;;;;;;6183071;23;20032;-88
2023/12/15 09:02:52;;;;;;;25.05;14.45;;;;;;;;;;6182915;23;20005;-90
2023/12/15 09:05:23;;;;;;;31.77;16.13;;;;;;;;;;6183401;23;20033;-89
2023/12/15 09:07:52;;;;;;;31.55;15.63;;;;;;;;;;6183943;23;20020;-89
2023/12/15 09:10:19;;;;;;;32.20;14.45;;;;;;;;;;6182859;23;20005;-89
2023/12/15 09:12:45;;;;;;;30.50;14.20;;;;;;;;;;6183962;23;20438;-89
2023/12/15 09:15:12;;;;;;;25.77;13.95;;;;;;;;;;6183010;23;20013;-90
2023/12/15 09:17:38;;;;;;;29.10;13.10;;;;;;;;;;6183595;23;20132;-89
2023/12/15 09:20:04;;;;;;;28.65;14.43;;;;;;;;;;6183298;23;20060;-89
2023/12/15 09:22:30;;;;;;;31.58;14.68;;;;;;;;;;6183750;23;20501;-89
2023/12/15 09:24:55;;;;;;;29.55;13.75;;;;;;;;;;6182290;23;20494;-89
2023/12/15 09:27:21;;;;;;;32.60;15.05;;;;;;;;;;6181478;23;20009;-89
2023/12/15 09:29:46;;;;;;;30.92;14.55;;;;;;;;;;6183991;23;20071;-89
2023/12/15 09:32:12;;;;;;;36.70;14.20;;;;;;;;;;6183754;23;20088;-89
2023/12/15 09:34:38;;;;;;;28.98;13.13;;;;;;;;;;6157799;23;20009;-88
2023/12/15 09:37:03;;;;;;;27.85;13.73;;;;;;;;;;6183664;23;20040;-89
2023/12/15 09:39:28;;;;;;;30.88;14.35;;;;;;;;;;6184086;23;20023;-89
2023/12/15 09:41:54;;;;;;;31.45;14.65;;;;;;;;;;6182786;23;20058;-89
2023/12/15 09:44:20;;;;;;;30.98;13.98;;;;;;;;;;6182176;23;20036;-88
2023/12/15 09:46:46;;;;;;;27.83;14.05;;;;;;;;;;6181435;23;20032;-89
2023/12/15 09:49:16;;;;;;;30.33;14.75;;;;;;;;;;6182239;23;20507;-89
2023/12/15 09:51:49;;;;;;;30.27;15.35;;;;;;;;;;6181728;23;20009;-89
2023/12/15 09:54:14;;;;;;;26.17;13.40;;;;;;;;;;6182309;23;20005;-89
2023/12/15 09:56:40;;;;;;;28.17;13.88;;;;;;;;;;6181982;23;20016;-89
2023/12/15 09:59:14;;;;;;;30.05;13.23;;;;;;;;;;6184360;23;20013;-89
2023/12/15 10:01:40;;;;;;;27.88;12.70;;;;;;;;;;6183987;23;20083;-89
2023/12/15 10:04:15;;;;;;;26.23;13.25;;;;;;;;;;6184050;23;20116;-88
2023/12/15 10:06:41;;;;;;;26.35;12.90;;;;;;;;;;6158679;23;20458;-89
2023/12/15 10:09:12;;;;;;;25.02;12.55;;;;;;;;;;6181573;23;20004;-90
2023/12/15 10:11:43;;;;;;;28.52;12.73;;;;;;;;;;6184556;23;20047;-90
2023/12/15 10:14:09;;;;;;;27.65;12.35;;;;;;;;;;6184774;23;20005;-91
2023/12/15 10:16:36;;;;;;;29.52;13.07;;;;;;;;;;6184018;23;20339;-91
2023/12/15 10:19:04;;;;;;;26.02;12.10;;;;;;;;;;6183629;23;20059;-91
2023/12/15 10:21:31;;;;;;;28.40;12.63;;;;;;;;;;6184069;23;20001;-90
2023/12/15 10:23:57;;;;;;;27.33;12.98;;;;;;;;;;6183859;23;20012;-89
2023/12/15 10:26:22;;;;;;;24.98;12.20;;;;;;;;;;6159024;23;20068;-91
2023/12/15 10:28:48;;;;;;;27.92;12.32;;;;;;;;;;6183743;23;20067;-91
2023/12/15 10:31:13;;;;;;;27.67;11.50;;;;;;;;;;6183477;23;20009;-90
2023/12/15 10:33:40;;;;;;;26.05;11.32;;;;;;;;;;6183394;23;20009;-90
2023/12/15 10:36:08;;;;;;;25.60;12.25;;;;;;;;;;6183829;23;20028;-91
2023/12/15 10:38:34;;;;;;;23.70;11.52;;;;;;;;;;6183569;23;20013;-90
2023/12/15 10:41:00;;;;;;;28.85;12.52;;;;;;;;;;6183798;23;20020;-90
2023/12/15 10:43:27;;;;;;;30.17;12.82;;;;;;;;;;6184016;23;20052;-90
2023/12/15 10:45:54;;;;;;;24.83;11.98;;;;;;;;;;6183202;23;20003;-90
2023/12/15 10:48:26;;;;;;;24.08;11.18;;;;;;;;;;6184158;23;20445;-90
2023/12/15 10:50:53;;;;;;;25.70;11.80;;;;;;;;;;6183790;23;20005;-90
2023/12/15 10:53:19;;;;;;;28.90;12.13;;;;;;;;;;6159287;23;20427;-91
2023/12/15 10:55:46;;;;;;;21.05;10.43;;;;;;;;;;6182104;23;20073;-90
2023/12/15 10:58:13;;;;;;;22.25;11.40;;;;;;;;;;6183338;23;20095;-92
2023/12/15 11:00:39;;;;;;;25.77;10.90;;;;;;;;;;6183906;23;20001;-90
2023/12/15 11:03:23;;;;;;;21.20;10.50;;;;;;;;;;6183562;23;20001;-89
2023/12/15 11:05:51;;;;;;;22.02;10.65;;;;;;;;;;6182963;23;20023;-91
2023/12/15 11:08:17;;;;;;;22.23;10.52;;;;;;;;;;6159039;23;20095;-90
2023/12/15 11:10:46;;;;;;;24.48;10.55;;;;;;;;;;6183885;23;20435;-90
2023/12/15 11:13:49;;;;;;;25.58;10.40;;;;;;;;;;6183814;23;20009;-90
2023/12/15 11:16:17;;;;;;;23.48;10.35;;;;;;;;;;6182759;23;20008;-90
2023/12/15 11:18:42;;;;;;;19.98;10.10;;;;;;;;;;6183823;23;20051;-90
2023/12/15 11:21:11;;;;;;;24.63;9.90;;;;;;;;;;6184082;23;20005;-90
2023/12/15 11:24:04;;;;;;;23.00;9.45;;;;;;;;;;6183386;23;20067;-90
2023/12/15 11:26:42;;;;;;;18.80;9.20;;;;;;;;;;6178988;23;20009;-90
2023/12/15 11:29:13;;;;;;;22.80;9.07;;;;;;;;;;6184129;23;20008;-88
2023/12/15 11:31:40;;;;;;;21.60;8.75;;;;;;;;;;6183447;23;20005;-89
2023/12/15 11:34:06;;;;;;;18.40;8.35;;;;;;;;;;6183021;23;20441;-89
2023/12/15 11:36:42;;;;;;;24.00;9.52;;;;;;;;;;6182880;23;20009;-88
2023/12/15 11:39:12;;;;;;;18.27;8.38;;;;;;;;;;6182314;23;20095;-88
2023/12/15 11:41:38;;;;;;;17.13;8.43;;;;;;;;;;6183047;23;20008;-89
2023/12/15 11:44:04;;;;;;;17.05;7.72;;;;;;;;;;6182701;23;20043;-88
2023/12/15 11:46:30;;;;;;;23.23;8.02;;;;;;;;;;6182080;23;20001;-89
2023/12/15 11:48:55;;;;;;;24.33;8.35;;;;;;;;;;6182633;23;20005;-89
2023/12/15 11:51:28;;;;;;;18.98;7.60;;;;;;;;;;6183299;23;20037;-89
2023/12/15 11:53:55;;;;;;;15.98;6.97;;;;;;;;;;6182913;23;20009;-90
2023/12/15 11:56:21;;;;;;;19.10;6.80;;;;;;;;;;6183516;23;20415;-88
2023/12/15 11:58:47;;;;;;;18.70;7.22;;;;;;;;;;6184375;23;20007;-88
2023/12/15 12:01:18;;;;;;;15.18;7.05;;;;;;;;;;6185201;23;20005;-88
2023/12/15 12:03:44;;;;;;;16.40;7.30;;;;;;;;;;6184752;23;20012;-89
2023/12/15 12:06:20;;;;;;;19.20;8.20;;;;;;;;;;6185005;23;20016;-88
2023/12/15 12:08:56;;;;;;;15.35;7.47;;;;;;;;;;6184144;23;20071;-88
2023/12/15 12:11:22;;;;;;;16.08;6.88;;;;;;;;;;6184341;23;20013;-88
2023/12/15 12:13:48;;;;;;;14.27;6.03;;;;;;;;;;6184872;23;20431;-88
2023/12/15 12:16:17;;;;;;;16.73;5.78;;;;;;;;;;6184700;23;20013;-89
2023/12/15 12:19:01;;;;;;;14.55;5.35;;;;;;;;;;6184361;23;20143;-88
2023/12/15 12:21:27;;;;;;;17.13;5.32;;;;;;;;;;6184925;23;20438;-88
2023/12/15 12:24:05;;;;;;;16.13;6.05;;;;;;;;;;6183991;23;20029;-88
2023/12/15 12:26:31;;;;;;;19.05;6.10;;;;;;;;;;6184565;23;20088;-89
2023/12/15 12:28:56;;;;;;;17.95;6.20;;;;;;;;;;6185427;23;20028;-88
2023/12/15 12:31:22;;;;;;;20.92;6.07;;;;;;;;;;6184587;23;20015;-88
2023/12/15 12:33:47;;;;;;;15.27;5.47;;;;;;;;;;6184563;23;20088;-87
2023/12/15 12:36:14;;;;;;;13.02;5.60;;;;;;;;;;6183608;23;20013;-87
2023/12/15 12:38:40;;;;;;;13.40;5.25;;;;;;;;;;6183699;23;20008;-87
2023/12/15 12:41:06;;;;;;;13.88;5.32;;;;;;;;;;6184719;23;20423;-90
2023/12/15 12:43:33;;;;;;;15.45;4.63;;;;;;;;;;6185258;23;20009;-90
2023/12/15 12:45:58;;;;;;;17.08;4.93;;;;;;;;;;6184788;23;20431;-90
2023/12/15 12:48:24;;;;;;;13.38;4.88;;;;;;;;;;6185430;23;20016;-90
2023/12/15 12:50:49;;;;;;;13.57;4.70;;;;;;;;;;6185125;23;20502;-89
2023/12/15 12:53:15;;;;;;;19.08;4.88;;;;;;;;;;6185545;23;20001;-89
2023/12/15 12:55:40;;;;;;;12.70;4.53;;;;;;;;;;6185524;23;20375;-90
2023/12/15 12:58:06;;;;;;;17.13;5.05;;;;;;;;;;6181797;23;20016;-89
2023/12/15 13:00:31;;;;;;;13.55;4.43;;;;;;;;;;6184182;23;20049;-89
2023/12/15 13:02:57;;;;;;;13.68;4.40;;;;;;;;;;6185066;23;20096;-90
2023/12/15 13:05:22;;;;;;;16.67;4.40;;;;;;;;;;6184189;23;20009;-90
2023/12/15 13:07:48;;;;;;;12.02;4.18;;;;;;;;;;6184584;23;20376;-90
2023/12/15 13:10:16;;;;;;;13.40;4.10;;;;;;;;;;6160059;23;20016;-91
2023/12/15 13:12:44;;;;;;;13.68;3.88;;;;;;;;;;6183341;23;20469;-89
2023/12/15 13:15:14;;;;;;;11.82;3.85;;;;;;;;;;6184522;23;20036;-90
2023/12/15 13:17:40;;;;;;;13.60;4.35;;;;;;;;;;6184904;23;20009;-90
2023/12/15 13:20:09;;;;;;;14.30;4.03;;;;;;;;;;6160406;23;20047;-90
2023/12/15 13:22:35;;;;;;;14.25;3.58;;;;;;;;;;6185560;23;20418;-90
2023/12/15 13:25:01;;;;;;;13.02;3.55;;;;;;;;;;6184774;23;20016;-89
2023/12/15 13:27:26;;;;;;;14.68;3.92;;;;;;;;;;6183499;23;20032;-89
2023/12/15 13:30:01;;;;;;;15.98;3.72;;;;;;;;;;6184216;23;20059;-89
2023/12/15 13:32:26;;;;;;;11.70;3.33;;;;;;;;;;6184167;23;20000;-90
2023/12/15 13:35:00;;;;;;;12.20;3.63;;;;;;;;;;6183270;23;20011;-89
2023/12/15 13:37:25;;;;;;;11.93;3.20;;;;;;;;;;6183933;23;20039;-90
2023/12/15 13:39:51;;;;;;;11.32;3.10;;;;;;;;;;6181260;23;20005;-90
2023/12/15 13:42:16;;;;;;;8.70;3.05;;;;;;;;;;6183861;23;19997;-90
2023/12/15 13:44:42;;;;;;;9.52;3.20;;;;;;;;;;6183710;23;20023;-90
2023/12/15 13:47:24;;;;;;;10.23;2.92;;;;;;;;;;6182925;23;20024;-90
2023/12/15 13:49:49;;;;;;;9.73;2.90;;;;;;;;;;6184079;23;20343;-88
2023/12/15 13:52:15;;;;;;;13.02;3.17;;;;;;;;;;6182913;23;20005;-87
2023/12/15 13:54:40;;;;;;;9.18;2.60;;;;;;;;;;6182740;23;20009;-88
2023/12/15 13:57:06;;;;;;;10.40;2.60;;;;;;;;;;6183278;23;20009;-88
2023/12/15 13:59:31;;;;;;;10.25;3.05;;;;;;;;;;6183236;23;20009;-89
2023/12/15 14:01:59;;;;;;;8.25;2.15;;;;;;;;;;6183496;23;20005;-89
2023/12/15 14:04:33;;;;;;;9.90;2.80;;;;;;;;;;6184048;23;20008;-89
2023/12/15 14:07:00;;;;;;;11.10;2.50;;;;;;;;;;6183424;23;20434;-90
2023/12/15 14:09:35;;;;;;;8.75;2.20;;;;;;;;;;6185163;23;20017;-89
2023/12/15 14:12:04;;;;;;;11.75;2.38;;;;;;;;;;6183722;23;20067;-89
2023/12/15 14:14:29;;;;;;;9.00;2.05;;;;;;;;;;6183101;23;20015;-90
2023/12/15 14:16:55;;;;;;;8.60;1.80;;;;;;;;;;6183691;23;20013;-88
2023/12/15 14:19:21;;;;;;;11.05;2.22;;;;;;;;;;6158728;23;20012;-89
2023/12/15 14:21:47;;;;;;;10.98;1.98;;;;;;;;;;6158235;23;20009;-89